createdAt,value
2023-03-28T11:27:15.497Z,99.99
2023-03-28T11:28:07.559Z,99.99
2023-03-28T11:29:07.529Z,99.99
2023-03-28T11:30:07.489Z,99.99
2023-03-28T11:31:07.538Z,99.99
2023-03-28T11:32:07.470Z,99.99
2023-03-28T11:33:07.516Z,99.99
2023-03-28T11:34:07.414Z,99.99
2023-03-28T11:35:07.423Z,99.99
2023-03-28T11:36:07.503Z,99.99
2023-03-28T11:37:07.365Z,99.99
2023-03-28T11:38:07.338Z,99.99
2023-03-28T11:39:07.362Z,99.99
2023-03-28T11:40:08.959Z,99.99
2023-03-28T11:41:07.311Z,99.99
2023-03-28T11:42:07.272Z,99.99
2023-03-28T11:43:07.288Z,99.99
2023-03-28T11:44:07.238Z,99.99
2023-03-28T11:45:07.238Z,99.99
2023-03-28T11:46:07.290Z,99.99
2023-03-28T11:47:07.198Z,99.99
2023-03-28T11:48:07.247Z,99.99
2023-03-28T11:49:07.163Z,99.37
2023-03-28T11:50:07.145Z,99.99
2023-03-28T11:51:07.139Z,99.99
2023-03-28T11:52:07.093Z,99.94
2023-03-28T11:53:07.114Z,99.99
2023-03-28T11:54:07.080Z,99.84
2023-03-28T11:55:07.054Z,99.99
2023-03-28T11:56:07.053Z,98.79
2023-03-28T11:57:07.087Z,99.37
2023-03-28T11:58:07.027Z,99.99
2023-03-28T11:59:07.014Z,99.99
2023-03-28T12:00:06.970Z,99.99
2023-03-28T12:01:07.003Z,99.99
2023-03-28T12:02:06.965Z,99.99
2023-03-28T12:03:07.008Z,99.99
2023-03-28T12:04:07.010Z,99.99
2023-03-28T12:05:06.874Z,99.99
2023-03-28T12:06:08.997Z,99.99
2023-03-28T12:07:06.867Z,99.99
2023-03-28T12:08:06.848Z,99.99
2023-03-28T12:09:06.867Z,99.99
2023-03-28T12:10:06.792Z,99.99
2023-03-28T12:11:06.805Z,99.99
2023-03-28T12:12:06.753Z,99.99
2023-03-28T12:13:06.753Z,99.99
2023-03-28T12:14:12.238Z,99.99
2023-03-28T12:15:06.724Z,99.99
2023-03-28T12:16:06.694Z,99.99
2023-03-28T12:17:06.692Z,99.99
2023-03-28T12:18:06.723Z,99.95
2023-03-28T12:19:06.658Z,99.75
2023-03-28T12:20:06.640Z,98.75
2023-03-28T12:21:06.640Z,98.80
2023-03-28T12:22:06.579Z,97.56
2023-03-28T12:23:06.589Z,96.61
2023-03-28T12:24:06.547Z,95.89
2023-03-28T12:25:06.554Z,94.36
2023-03-28T12:26:06.531Z,93.98
2023-03-28T12:27:06.536Z,94.17
2023-03-28T12:28:06.483Z,92.64
2023-03-28T12:29:06.470Z,92.50
2023-03-28T12:30:06.445Z,90.44
2023-03-28T12:31:06.487Z,89.29
2023-03-28T12:32:06.444Z,87.95
2023-03-28T12:33:06.452Z,87.04
2023-03-28T12:34:06.395Z,87.04
2023-03-28T12:35:06.370Z,87.19
2023-03-28T12:36:06.404Z,86.63
2023-03-28T12:37:06.373Z,86.15
2023-03-28T12:38:06.344Z,86.72
2023-03-28T12:39:06.309Z,86.68
2023-03-28T12:40:06.308Z,88.01
2023-03-28T12:41:06.274Z,89.39
2023-03-28T12:42:06.284Z,87.58
2023-03-28T12:43:06.244Z,86.30
2023-03-28T12:44:06.224Z,86.96
2023-03-28T12:45:06.212Z,87.39
2023-03-28T12:46:06.271Z,86.76
2023-03-28T12:47:06.192Z,85.14
2023-03-28T12:48:06.210Z,84.76
2023-03-28T12:49:06.165Z,85.38
2023-03-28T12:50:06.149Z,86.47
2023-03-28T12:51:06.121Z,85.85
2023-03-28T12:52:06.134Z,84.28
2023-03-28T12:53:06.114Z,84.55
2023-03-28T12:54:06.068Z,84.79
2023-03-28T12:55:06.061Z,82.34
2023-03-28T12:56:06.060Z,81.48
2023-03-28T12:57:06.062Z,80.62
2023-03-28T12:58:06.030Z,80.33
2023-03-28T12:59:06.022Z,79.51
2023-03-28T13:00:06.006Z,79.32
2023-03-28T13:01:06.037Z,79.70
2023-03-28T13:02:05.970Z,80.41
2023-03-28T13:03:06.040Z,77.88
2023-03-28T13:04:05.975Z,77.44
2023-03-28T13:05:05.919Z,76.42
2023-03-28T13:06:05.915Z,74.62
2023-03-28T13:07:05.908Z,75.35
2023-03-28T13:08:05.899Z,76.60
2023-03-28T13:09:05.859Z,76.92
2023-03-28T13:10:05.861Z,74.82
2023-03-28T13:11:05.851Z,75.35
2023-03-28T13:12:05.812Z,77.23
2023-03-28T13:13:05.840Z,79.28
2023-03-28T13:14:05.785Z,78.57
2023-03-28T13:15:05.801Z,77.51
2023-03-28T13:16:05.838Z,77.57
2023-03-28T13:17:05.755Z,78.24
2023-03-28T13:18:05.758Z,79.39
2023-03-28T13:19:05.748Z,79.20
2023-03-28T13:20:05.712Z,78.87
2023-03-28T13:21:05.722Z,79.25
2023-03-28T13:22:05.700Z,80.02
2023-03-28T13:23:05.681Z,79.50
2023-03-28T13:24:05.667Z,80.46
2023-03-28T13:25:05.648Z,80.27
2023-03-28T13:26:05.643Z,79.85
2023-03-28T13:27:05.640Z,80.22
2023-03-28T13:28:05.601Z,80.80
2023-03-28T13:29:05.624Z,81.90
2023-03-28T13:30:05.598Z,82.09
2023-03-28T13:31:05.639Z,82.00
2023-03-28T13:32:05.572Z,82.86
2023-03-28T13:33:05.577Z,82.57
2023-03-28T13:34:05.533Z,82.86
2023-03-28T13:35:05.579Z,82.48
2023-03-28T13:36:05.943Z,81.86
2023-03-28T13:37:05.488Z,82.63
2023-03-28T13:38:05.466Z,82.53
2023-03-28T13:39:05.468Z,83.05
2023-03-28T13:40:05.441Z,82.86
2023-03-28T13:41:05.448Z,83.43
2023-03-28T13:42:05.407Z,83.81
2023-03-28T13:43:05.422Z,82.95
2023-03-28T13:44:05.377Z,83.28
2023-03-28T13:45:05.382Z,83.28
2023-03-28T13:46:05.354Z,82.23
2023-03-28T13:47:05.387Z,82.23
2023-03-28T13:48:13.225Z,83.47
2023-03-28T13:49:05.336Z,82.71
2023-03-28T13:50:05.306Z,82.28
2023-03-28T13:51:05.285Z,82.14
2023-03-28T13:52:05.283Z,80.80
2023-03-28T13:53:05.261Z,80.80
2023-03-28T13:54:05.236Z,82.04
2023-03-28T13:55:05.241Z,82.00
2023-03-28T13:56:05.225Z,81.33
2023-03-28T13:57:05.249Z,80.76
2023-03-28T13:58:05.193Z,81.81
2023-03-28T13:59:05.167Z,83.01
2023-03-28T14:00:05.189Z,83.62
2023-03-28T14:01:05.175Z,83.62
2023-03-28T14:02:05.178Z,81.54
2023-03-28T14:03:05.159Z,82.34
2023-03-28T14:04:05.099Z,83.67
2023-03-28T14:05:05.105Z,85.05
2023-03-28T14:06:05.088Z,84.43
2023-03-28T14:07:05.666Z,83.13
2023-03-28T14:08:05.038Z,83.37
2023-03-28T14:09:05.028Z,81.84
2023-03-28T14:10:05.067Z,80.29
2023-03-28T14:11:04.992Z,78.95
2023-03-28T14:12:05.007Z,78.28
2023-03-28T14:13:04.982Z,78.43
2023-03-28T14:14:06.656Z,78.51
2023-03-28T14:15:04.951Z,77.84
2023-03-28T14:16:05.013Z,77.51
2023-03-28T14:17:04.911Z,77.61
2023-03-28T14:18:05.010Z,76.69
2023-03-28T14:19:04.944Z,76.98
2023-03-28T14:20:05.010Z,75.73
2023-03-28T14:21:04.859Z,75.96
2023-03-28T14:22:04.862Z,75.29
2023-03-28T14:23:04.836Z,75.39
2023-03-28T14:24:04.831Z,75.37
2023-03-28T14:25:04.852Z,74.16
2023-03-28T14:26:04.842Z,72.72
2023-03-28T14:27:04.789Z,71.76
2023-03-28T14:28:04.789Z,70.13
2023-03-28T14:29:04.786Z,69.33
2023-03-28T14:30:04.761Z,69.77
2023-03-28T14:31:04.757Z,69.64
2023-03-28T14:32:04.774Z,70.66
2023-03-28T14:33:04.761Z,72.06
2023-03-28T14:34:04.745Z,73.17
2023-03-28T14:35:04.727Z,73.65
2023-03-28T14:36:04.728Z,73.69
2023-03-28T14:37:04.681Z,73.91
2023-03-28T14:38:04.706Z,73.76
2023-03-28T14:39:04.757Z,73.38
2023-03-28T14:40:04.677Z,73.16
2023-03-28T14:41:04.647Z,72.39
2023-03-28T14:42:04.660Z,71.37
2023-03-28T14:43:04.634Z,71.61
2023-03-28T14:44:04.605Z,69.81
2023-03-28T14:45:04.607Z,69.33
2023-03-28T14:46:04.641Z,70.64
2023-03-28T14:47:04.585Z,71.40
2023-03-28T14:48:04.584Z,71.17
2023-03-28T14:49:04.542Z,73.24
2023-03-28T14:50:04.547Z,74.74
2023-03-28T14:51:04.557Z,75.41
2023-03-28T14:52:04.540Z,76.42
2023-03-28T14:53:04.525Z,75.91
2023-03-28T14:54:04.529Z,76.48
2023-03-28T14:55:04.495Z,77.25
2023-03-28T14:56:06.419Z,78.87
2023-03-28T14:57:04.505Z,79.12
2023-03-28T14:58:04.461Z,79.88
2023-03-28T14:59:04.456Z,79.65
2023-03-28T15:00:04.468Z,80.51
2023-03-28T15:01:04.554Z,80.99
2023-03-28T15:02:04.542Z,80.99
2023-03-28T15:03:04.449Z,80.70
2023-03-28T15:04:04.399Z,81.18
2023-03-28T15:05:04.384Z,80.80
2023-03-28T15:06:04.384Z,81.47
2023-03-28T15:07:04.608Z,80.90
2023-03-28T15:08:16.255Z,81.37
2023-03-28T15:09:16.242Z,81.47
2023-03-28T15:10:16.261Z,81.95
2023-03-28T15:11:16.234Z,81.62
2023-03-28T15:12:16.207Z,82.09
2023-03-28T15:13:17.391Z,81.56
2023-03-28T15:14:16.173Z,80.90
2023-03-28T15:15:16.189Z,80.90
2023-03-28T15:16:16.218Z,80.99
2023-03-28T15:17:16.141Z,81.27
2023-03-28T15:18:16.134Z,80.85
